Time;durP1;ratioP1;P1;durP2;ratioP2;P2;SDS_P1;SDS_P2;PMS_P1;PMS_P2;Temp;Humidity;BMP_temperature;BMP_pressure;BME280_temperature;BME280_humidity;BME280_pressure;Samples;Min_cycle;Max_cycle;Signal;HPM_P1;HPM_P2
2023/07/15 00:02:24;;;;;;;2.22;2.00;;;22.40;48.90;;;;;;871245;161;27436;-75
2023/07/15 00:04:51;;;;;;;2.37;2.15;;;22.40;49.00;;;;;;871621;161;27875;-75
2023/07/15 00:07:17;;;;;;;1.98;1.77;;;22.30;49.10;;;;;;870153;161;27420;-75
2023/07/15 00:09:44;;;;;;;2.17;2.00;;;22.40;49.20;;;;;;870454;162;27440;-75
2023/07/15 00:12:10;;;;;;;3.70;1.90;;;22.30;49.20;;;;;;870940;162;27520;-75
2023/07/15 00:14:38;;;;;;;4.72;1.87;;;22.40;49.30;;;;;;870537;161;27459;-75
2023/07/15 00:17:03;;;;;;;1.82;1.65;;;22.30;49.30;;;;;;870506;161;27392;-75
2023/07/15 00:19:33;;;;;;;3.25;1.98;;;22.30;49.40;;;;;;870805;161;27560;-75
2023/07/15 00:21:57;;;;;;;2.67;2.05;;;22.30;49.60;;;;;;871105;161;27557;-75
2023/07/15 00:24:23;;;;;;;1.90;1.80;;;22.30;49.60;;;;;;871366;161;27427;-75
2023/07/15 00:26:50;;;;;;;1.80;1.70;;;22.30;49.70;;;;;;871221;161;27407;-75
2023/07/15 00:29:16;;;;;;;2.72;2.08;;;22.30;49.80;;;;;;870492;162;27534;-75
2023/07/15 00:31:43;;;;;;;2.42;2.10;;;22.20;49.80;;;;;;871690;161;27443;-75
2023/07/15 00:34:10;;;;;;;3.45;1.82;;;22.20;49.80;;;;;;871635;161;27374;-76
2023/07/15 00:36:36;;;;;;;2.33;2.12;;;22.20;50.00;;;;;;871169;161;27448;-75
2023/07/15 00:39:04;;;;;;;2.33;2.00;;;22.20;50.20;;;;;;871714;161;27458;-75
2023/07/15 00:41:29;;;;;;;1.92;1.70;;;22.10;50.20;;;;;;871434;161;27993;-76
2023/07/15 00:43:58;;;;;;;2.20;2.00;;;22.10;50.30;;;;;;871844;161;28208;-76
2023/07/15 00:46:31;;;;;;;2.10;1.90;;;22.10;50.40;;;;;;871670;161;27470;-75
2023/07/15 00:49:19;;;;;;;2.58;1.90;;;22.10;50.50;;;;;;870515;162;27642;-76
2023/07/15 00:51:46;;;;;;;2.37;1.87;;;22.10;50.60;;;;;;872493;161;27602;-76
2023/07/15 00:54:13;;;;;;;2.20;1.87;;;22.10;50.60;;;;;;873798;162;27533;-76
2023/07/15 00:56:40;;;;;;;2.15;1.95;;;22.00;50.60;;;;;;873197;160;27504;-76
2023/07/15 00:59:05;;;;;;;3.33;1.82;;;22.00;50.80;;;;;;873998;161;27420;-76
2023/07/15 01:01:32;;;;;;;1.80;1.70;;;22.00;50.80;;;;;;874102;162;27414;-76
2023/07/15 01:03:58;;;;;;;2.42;2.15;;;22.00;51.00;;;;;;874028;160;27470;-76
2023/07/15 01:06:25;;;;;;;1.87;1.77;;;22.00;51.20;;;;;;873021;160;27556;-76
2023/07/15 01:08:51;;;;;;;1.70;1.60;;;22.00;51.30;;;;;;873734;159;27449;-76
2023/07/15 01:11:18;;;;;;;2.22;2.05;;;21.90;51.30;;;;;;873767;162;27396;-76
2023/07/15 01:13:45;;;;;;;2.27;2.10;;;21.90;51.40;;;;;;873131;160;27456;-76
2023/07/15 01:16:11;;;;;;;2.25;2.05;;;21.90;51.50;;;;;;873985;161;27415;-75
2023/07/15 01:18:38;;;;;;;2.45;2.10;;;21.90;51.60;;;;;;873708;162;27513;-76
2023/07/15 01:21:04;;;;;;;2.00;1.90;;;21.90;51.80;;;;;;873613;161;27443;-76
2023/07/15 01:23:32;;;;;;;2.37;2.00;;;21.80;51.90;;;;;;872998;161;27549;-75
2023/07/15 01:25:58;;;;;;;2.33;1.92;;;21.80;51.90;;;;;;873211;160;27364;-76
2023/07/15 01:28:24;;;;;;;2.15;2.05;;;21.80;52.10;;;;;;873640;162;27514;-76
2023/07/15 01:30:51;;;;;;;3.25;2.35;;;21.80;52.20;;;;;;874066;162;28008;-76
2023/07/15 01:33:18;;;;;;;3.62;2.02;;;21.80;52.40;;;;;;873999;162;27836;-76
2023/07/15 01:35:49;;;;;;;2.35;2.12;;;21.80;52.40;;;;;;872095;161;27522;-76
2023/07/15 01:38:13;;;;;;;3.00;2.08;;;21.80;52.50;;;;;;871810;160;27542;-76
2023/07/15 01:40:40;;;;;;;1.90;1.80;;;21.80;52.60;;;;;;872487;161;27987;-76
2023/07/15 01:43:06;;;;;;;3.52;1.90;;;21.80;52.70;;;;;;872376;161;27444;-76
2023/07/15 01:45:33;;;;;;;2.10;1.77;;;21.80;52.90;;;;;;872609;160;27471;-76
2023/07/15 01:48:00;;;;;;;2.62;2.25;;;21.80;53.00;;;;;;872465;161;27416;-76
2023/07/15 01:50:26;;;;;;;2.17;1.90;;;21.80;53.00;;;;;;871398;161;27512;-76
2023/07/15 01:52:53;;;;;;;2.33;2.12;;;21.80;53.30;;;;;;872952;161;27471;-76
2023/07/15 01:55:19;;;;;;;2.12;1.92;;;21.70;53.20;;;;;;873643;160;27518;-76
2023/07/15 01:57:46;;;;;;;2.30;2.10;;;21.70;53.30;;;;;;872735;160;27458;-76
2023/07/15 02:00:16;;;;;;;2.45;2.25;;;21.70;53.40;;;;;;873554;162;27418;-76
2023/07/15 02:02:39;;;;;;;2.20;2.00;;;21.70;53.40;;;;;;873732;161;27426;-76
2023/07/15 02:05:06;;;;;;;2.50;2.30;;;21.70;53.50;;;;;;874117;163;27435;-76
2023/07/15 02:07:32;;;;;;;2.80;1.95;;;21.70;53.60;;;;;;873719;163;27536;-76
2023/07/15 02:09:59;;;;;;;2.70;2.17;;;21.60;53.60;;;;;;872492;160;27428;-76
2023/07/15 02:12:25;;;;;;;2.08;1.98;;;21.60;53.70;;;;;;872066;160;27544;-76
2023/07/15 02:14:52;;;;;;;2.20;2.08;;;21.60;53.80;;;;;;873817;163;27500;-76
2023/07/15 02:17:22;;;;;;;3.25;2.35;;;21.60;53.90;;;;;;873610;160;27550;-76
2023/07/15 02:19:45;;;;;;;2.47;2.27;;;21.50;54.00;;;;;;873758;161;27984;-76
2023/07/15 02:22:13;;;;;;;2.27;1.90;;;21.50;54.10;;;;;;874001;162;27428;-76
2023/07/15 02:24:38;;;;;;;2.50;2.05;;;21.50;54.10;;;;;;873983;160;27419;-76
2023/07/15 02:27:05;;;;;;;2.05;1.85;;;21.50;54.30;;;;;;873320;160;27829;-76
2023/07/15 02:29:32;;;;;;;2.62;2.37;;;21.40;54.40;;;;;;873118;162;27471;-76
2023/07/15 02:31:58;;;;;;;3.60;2.30;;;21.40;54.50;;;;;;874443;160;27450;-76
2023/07/15 02:34:25;;;;;;;2.42;2.15;;;21.30;54.60;;;;;;872940;160;27549;-76
2023/07/15 02:36:52;;;;;;;2.47;2.10;;;21.30;54.60;;;;;;866018;162;27512;-76
2023/07/15 02:39:18;;;;;;;2.05;1.90;;;21.30;54.80;;;;;;874161;160;27541;-76
2023/07/15 02:41:46;;;;;;;2.95;2.75;;;21.30;54.80;;;;;;873856;162;27557;-76
2023/07/15 02:44:12;;;;;;;2.75;1.72;;;21.20;54.90;;;;;;873404;162;27502;-76
2023/07/15 02:46:38;;;;;;;2.72;2.37;;;21.20;55.00;;;;;;873920;160;27504;-76
2023/07/15 02:49:04;;;;;;;2.00;1.90;;;21.20;55.10;;;;;;873763;162;27540;-76
2023/07/15 02:51:31;;;;;;;2.55;2.00;;;21.20;55.20;;;;;;873996;161;27467;-76
2023/07/15 02:53:57;;;;;;;2.22;2.10;;;21.20;55.30;;;;;;872575;161;27486;-76
2023/07/15 02:56:25;;;;;;;2.20;1.95;;;21.20;55.40;;;;;;871832;161;27407;-76
2023/07/15 02:58:51;;;;;;;2.45;2.17;;;21.20;55.50;;;;;;872736;161;27462;-76
2023/07/15 03:01:17;;;;;;;1.95;1.85;;;21.30;55.60;;;;;;873089;163;27459;-76
2023/07/15 03:03:44;;;;;;;5.03;2.33;;;21.30;55.60;;;;;;872447;161;27920;-76
2023/07/15 03:06:12;;;;;;;2.20;2.00;;;21.30;55.00;;;;;;872348;161;27432;-76
2023/07/15 03:08:37;;;;;;;2.50;2.30;;;21.30;55.70;;;;;;872906;162;27418;-76
2023/07/15 03:11:04;;;;;;;4.10;2.30;;;21.30;55.70;;;;;;872828;162;27839;-76
2023/07/15 03:13:30;;;;;;;2.25;1.77;;;21.30;55.80;;;;;;872353;161;27436;-76
2023/07/15 03:15:57;;;;;;;2.17;2.05;;;21.30;55.90;;;;;;872698;161;27545;-76
2023/07/15 03:18:25;;;;;;;2.47;2.27;;;21.40;55.90;;;;;;872859;162;27518;-76
2023/07/15 03:20:50;;;;;;;2.12;2.02;;;21.40;56.00;;;;;;872726;162;27545;-76
2023/07/15 03:23:17;;;;;;;2.47;2.00;;;21.40;56.00;;;;;;872848;161;27430;-76
2023/07/15 03:25:43;;;;;;;2.30;2.12;;;21.40;56.10;;;;;;872377;161;27447;-76
2023/07/15 03:28:11;;;;;;;2.15;1.95;;;21.40;56.10;;;;;;872948;162;27411;-76
2023/07/15 03:30:36;;;;;;;2.08;1.85;;;21.40;56.10;;;;;;872687;161;27419;-76
2023/07/15 03:33:03;;;;;;;2.02;1.90;;;21.40;56.70;;;;;;873203;161;27540;-76
2023/07/15 03:35:29;;;;;;;2.42;2.17;;;21.40;56.10;;;;;;872860;161;28027;-77
2023/07/15 03:37:56;;;;;;;2.47;2.27;;;21.40;56.20;;;;;;873448;162;27535;-76
2023/07/15 03:40:23;;;;;;;3.95;2.27;;;21.40;56.20;;;;;;872248;161;27924;-76
2023/07/15 03:42:49;;;;;;;2.20;2.00;;;21.40;56.20;;;;;;872396;161;27431;-76
2023/07/15 03:45:16;;;;;;;3.40;2.00;;;21.40;56.30;;;;;;872599;161;27447;-76
2023/07/15 03:47:42;;;;;;;3.33;2.10;;;21.40;56.40;;;;;;871961;162;27542;-76
2023/07/15 03:50:12;;;;;;;2.70;2.10;;;21.40;56.40;;;;;;872316;161;27536;-76
2023/07/15 03:52:39;;;;;;;2.90;2.08;;;21.40;56.60;;;;;;872224;161;27451;-76
2023/07/15 03:55:05;;;;;;;1.92;1.80;;;21.40;56.60;;;;;;873178;162;27584;-76
2023/07/15 03:57:32;;;;;;;2.55;2.12;;;21.40;56.60;;;;;;871558;161;27435;-76
2023/07/15 03:59:58;;;;;;;2.08;1.87;;;21.40;56.60;;;;;;872582;161;27407;-76
2023/07/15 04:02:25;;;;;;;1.95;1.85;;;21.40;56.60;;;;;;871749;162;27412;-76
2023/07/15 04:04:51;;;;;;;2.50;1.77;;;21.50;56.70;;;;;;872165;161;27453;-76
2023/07/15 04:07:18;;;;;;;3.27;1.90;;;21.50;56.80;;;;;;872642;161;27533;-76
2023/07/15 04:09:45;;;;;;;2.33;2.12;;;21.50;56.80;;;;;;872766;161;27527;-76
2023/07/15 04:12:11;;;;;;;2.02;1.92;;;21.50;56.80;;;;;;872280;161;27544;-76
2023/07/15 04:14:38;;;;;;;1.82;1.72;;;21.50;56.90;;;;;;872936;162;27541;-76
2023/07/15 04:17:04;;;;;;;2.58;2.20;;;21.50;56.90;;;;;;872190;163;27835;-76
2023/07/15 04:19:31;;;;;;;2.70;1.95;;;21.60;56.90;;;;;;873032;161;27444;-76
2023/07/15 04:21:58;;;;;;;2.27;1.90;;;21.60;57.00;;;;;;872129;161;27510;-76
2023/07/15 04:24:24;;;;;;;2.10;1.90;;;21.60;57.00;;;;;;872992;161;27423;-76
2023/07/15 04:26:51;;;;;;;2.27;2.00;;;21.60;57.00;;;;;;872958;161;27928;-76
2023/07/15 04:29:17;;;;;;;2.27;2.08;;;21.70;57.10;;;;;;872367;161;27454;-76
2023/07/15 04:31:44;;;;;;;3.08;2.20;;;21.70;57.20;;;;;;872574;161;27517;-76
2023/07/15 04:34:11;;;;;;;1.80;1.70;;;21.80;57.20;;;;;;872644;161;27463;-76
2023/07/15 04:36:37;;;;;;;2.20;2.00;;;21.90;57.30;;;;;;872609;161;27509;-76
2023/07/15 04:39:05;;;;;;;1.82;1.72;;;21.90;57.20;;;;;;872762;161;27521;-76
2023/07/15 04:41:31;;;;;;;1.95;1.85;;;22.00;57.20;;;;;;873414;161;27447;-76
2023/07/15 04:43:57;;;;;;;2.47;2.20;;;22.10;57.20;;;;;;872441;161;27558;-76
2023/07/15 04:46:23;;;;;;;1.87;1.77;;;22.20;57.20;;;;;;872644;161;27431;-76
2023/07/15 04:48:50;;;;;;;2.65;2.00;;;22.20;57.10;;;;;;872781;162;27432;-76
2023/07/15 04:51:17;;;;;;;3.67;2.33;;;22.30;57.10;;;;;;872851;160;27455;-76
2023/07/15 04:53:43;;;;;;;2.27;2.08;;;22.40;57.10;;;;;;872207;161;27452;-76
2023/07/15 04:56:10;;;;;;;4.33;2.00;;;22.50;57.10;;;;;;873096;161;27653;-76
2023/07/15 04:58:36;;;;;;;2.10;1.90;;;22.60;57.10;;;;;;873450;160;27427;-76
2023/07/15 05:01:03;;;;;;;2.75;2.00;;;22.70;57.10;;;;;;873555;163;27459;-76
2023/07/15 05:03:30;;;;;;;2.25;2.05;;;22.90;57.30;;;;;;873490;160;27447;-77
2023/07/15 05:05:56;;;;;;;4.95;1.90;;;23.10;57.50;;;;;;872587;160;27443;-76
2023/07/15 05:08:23;;;;;;;5.17;1.72;;;23.40;57.80;;;;;;873164;160;27758;-76
2023/07/15 05:10:49;;;;;;;2.60;1.98;;;23.80;58.20;;;;;;873396;160;28161;-76
2023/07/15 05:13:16;;;;;;;2.05;1.90;;;24.30;59.10;;;;;;873775;161;27464;-76
2023/07/15 05:15:43;;;;;;;2.33;1.65;;;24.90;58.50;;;;;;873062;160;28118;-76
2023/07/15 05:18:09;;;;;;;3.65;1.90;;;25.70;58.30;;;;;;873392;160;27532;-76
2023/07/15 05:20:37;;;;;;;2.42;1.57;;;26.40;57.90;;;;;;872637;160;27522;-76
2023/07/15 05:23:02;;;;;;;2.33;1.42;;;27.20;57.20;;;;;;873847;160;27452;-76
2023/07/15 05:25:29;;;;;;;2.12;1.65;;;28.10;56.40;;;;;;873143;160;27425;-77
2023/07/15 05:27:56;;;;;;;1.70;1.60;;;28.90;55.60;;;;;;873295;161;27498;-76
2023/07/15 05:30:22;;;;;;;1.60;1.50;;;29.70;54.60;;;;;;874108;160;27560;-76
2023/07/15 05:32:49;;;;;;;2.00;1.47;;;30.50;53.90;;;;;;873823;160;27440;-77
2023/07/15 05:35:15;;;;;;;1.80;1.60;;;31.30;52.70;;;;;;872748;163;27496;-76
2023/07/15 05:37:42;;;;;;;2.00;1.90;;;32.00;51.30;;;;;;872621;161;27482;-76
2023/07/15 05:40:12;;;;;;;3.20;1.70;;;32.60;49.60;;;;;;872277;161;27381;-77
2023/07/15 05:42:40;;;;;;;2.95;1.62;;;32.90;48.10;;;;;;873489;160;27533;-76
2023/07/15 05:45:07;;;;;;;3.33;1.85;;;33.10;46.90;;;;;;873917;161;27510;-76
2023/07/15 05:47:36;;;;;;;1.80;1.70;;;33.00;45.90;;;;;;873797;161;27518;-76
2023/07/15 05:50:01;;;;;;;1.80;1.70;;;32.80;45.30;;;;;;870877;161;27428;-76
2023/07/15 05:52:27;;;;;;;3.33;1.87;;;32.50;45.40;;;;;;871705;161;27457;-77
2023/07/15 05:54:53;;;;;;;2.00;1.70;;;32.50;46.20;;;;;;873768;161;27451;-77
2023/07/15 05:57:20;;;;;;;1.80;1.70;;;32.50;46.90;;;;;;873051;161;27476;-76
2023/07/15 05:59:47;;;;;;;2.12;1.98;;;32.70;46.90;;;;;;872750;161;27632;-76
2023/07/15 06:02:13;;;;;;;2.60;1.95;;;33.10;47.00;;;;;;871930;162;27541;-77
2023/07/15 06:04:40;;;;;;;2.00;1.80;;;33.50;47.00;;;;;;873978;161;27466;-77
2023/07/15 06:07:06;;;;;;;3.67;1.62;;;34.00;46.90;;;;;;873188;161;27514;-76
2023/07/15 06:09:33;;;;;;;2.35;1.60;;;34.50;46.00;;;;;;872918;162;26332;-77
2023/07/15 06:12:00;;;;;;;2.62;1.75;;;34.90;45.60;;;;;;872758;162;27439;-77
2023/07/15 06:14:26;;;;;;;3.02;1.90;;;35.30;44.50;;;;;;871997;161;26362;-77
2023/07/15 06:16:53;;;;;;;2.62;1.95;;;35.60;43.90;;;;;;872432;161;27456;-78
2023/07/15 06:19:19;;;;;;;2.42;1.75;;;35.80;43.30;;;;;;873040;161;26450;-74
2023/07/15 06:21:46;;;;;;;3.70;1.98;;;36.10;42.90;;;;;;873391;161;26352;-74
2023/07/15 06:24:13;;;;;;;2.47;1.80;;;36.30;42.90;;;;;;872311;161;26358;-74
2023/07/15 06:26:39;;;;;;;2.70;1.72;;;36.50;42.30;;;;;;872024;161;26315;-75
2023/07/15 06:29:06;;;;;;;3.42;1.57;;;36.70;41.60;;;;;;872460;161;27423;-74
2023/07/15 06:31:32;;;;;;;2.00;1.67;;;36.70;40.70;;;;;;873115;162;27444;-74
2023/07/15 06:33:59;;;;;;;2.12;1.82;;;36.60;40.20;;;;;;872727;162;27460;-74
2023/07/15 06:36:25;;;;;;;3.08;1.87;;;36.20;39.70;;;;;;872936;161;27475;-74
2023/07/15 06:38:52;;;;;;;2.35;2.08;;;35.80;39.60;;;;;;872589;162;27431;-74
2023/07/15 06:41:19;;;;;;;3.08;2.10;;;35.40;39.70;;;;;;873075;162;27462;-74
2023/07/15 06:43:45;;;;;;;5.55;2.10;;;35.00;40.30;;;;;;872789;162;27565;-74
2023/07/15 06:46:12;;;;;;;2.87;1.80;;;34.70;40.80;;;;;;872800;161;27455;-74
2023/07/15 06:48:38;;;;;;;3.27;2.05;;;34.50;41.10;;;;;;871817;161;27452;-76
2023/07/15 06:51:05;;;;;;;3.08;2.15;;;34.50;41.50;;;;;;872765;161;27431;-76
2023/07/15 06:53:32;;;;;;;1.82;1.67;;;34.50;41.50;;;;;;872155;161;27484;-76
2023/07/15 06:56:00;;;;;;;2.08;1.80;;;34.60;41.80;;;;;;872358;161;26408;-76
2023/07/15 06:58:25;;;;;;;1.82;1.70;;;34.80;42.10;;;;;;872419;161;26402;-76
2023/07/15 07:00:51;;;;;;;2.05;1.70;;;35.20;42.40;;;;;;872812;161;26329;-76
2023/07/15 07:03:18;;;;;;;4.97;1.60;;;35.70;42.60;;;;;;868572;161;26337;-76
2023/07/15 07:05:44;;;;;;;2.92;1.57;;;36.40;42.40;;;;;;872558;161;26371;-76
2023/07/15 07:08:11;;;;;;;2.27;1.70;;;37.10;41.60;;;;;;872050;162;26347;-76
2023/07/15 07:10:38;;;;;;;1.80;1.70;;;37.90;41.10;;;;;;872686;161;26725;-76
2023/07/15 07:13:04;;;;;;;1.67;1.57;;;38.60;40.60;;;;;;872468;161;26442;-77
2023/07/15 07:15:31;;;;;;;1.60;1.50;;;39.30;39.90;;;;;;873051;161;26376;-77
2023/07/15 07:17:58;;;;;;;1.60;1.50;;;40.00;39.00;;;;;;872410;161;26365;-77
2023/07/15 07:20:24;;;;;;;2.22;1.40;;;40.60;38.20;;;;;;872602;162;26351;-77
2023/07/15 07:22:51;;;;;;;1.57;1.30;;;41.30;37.40;;;;;;872582;161;26343;-77
2023/07/15 07:25:17;;;;;;;1.85;1.57;;;41.90;36.70;;;;;;872733;161;26341;-76
2023/07/15 07:27:44;;;;;;;1.50;1.40;;;42.20;35.20;;;;;;872438;161;26350;-77
2023/07/15 07:30:10;;;;;;;1.77;1.60;;;42.30;34.30;;;;;;872663;161;26458;-77
2023/07/15 07:32:37;;;;;;;5.78;1.50;;;42.20;33.70;;;;;;872107;161;27457;-77
2023/07/15 07:35:04;;;;;;;3.72;1.72;;;41.90;33.40;;;;;;872482;161;26460;-76
2023/07/15 07:37:30;;;;;;;3.80;1.50;;;41.60;33.30;;;;;;872378;161;26427;-76
2023/07/15 07:39:57;;;;;;;1.50;1.40;;;41.30;33.40;;;;;;872137;161;26658;-76
2023/07/15 07:42:23;;;;;;;1.40;1.30;;;40.90;33.80;;;;;;872131;161;26356;-76
2023/07/15 07:44:50;;;;;;;2.33;1.67;;;40.90;34.60;;;;;;872885;161;26415;-76
2023/07/15 07:47:17;;;;;;;1.50;1.40;;;41.10;35.00;;;;;;872180;161;26397;-76
2023/07/15 07:49:43;;;;;;;1.55;1.45;;;41.50;35.10;;;;;;872642;161;26365;-77
2023/07/15 07:52:10;;;;;;;1.62;1.52;;;42.10;35.00;;;;;;872354;161;26411;-76
2023/07/15 07:54:36;;;;;;;1.55;1.45;;;42.50;34.50;;;;;;872913;161;26326;-77
2023/07/15 07:57:03;;;;;;;2.90;1.50;;;43.10;33.60;;;;;;872248;161;26319;-76
2023/07/15 07:59:29;;;;;;;1.77;1.67;;;43.20;32.40;;;;;;872783;162;26447;-76
2023/07/15 08:01:56;;;;;;;2.42;1.30;;;43.20;31.70;;;;;;872355;162;26748;-76
2023/07/15 08:04:23;;;;;;;2.60;1.70;;;43.00;31.20;;;;;;872560;161;26456;-74
2023/07/15 08:06:49;;;;;;;2.15;1.35;;;42.60;31.10;;;;;;871928;161;26322;-74
2023/07/15 08:09:16;;;;;;;1.70;1.60;;;42.10;31.10;;;;;;872432;161;26326;-74
2023/07/15 08:11:44;;;;;;;1.60;1.50;;;41.60;31.20;;;;;;872636;161;27443;-74
2023/07/15 08:14:09;;;;;;;1.82;1.55;;;41.00;31.50;;;;;;871896;161;26369;-74
2023/07/15 08:16:36;;;;;;;1.52;1.42;;;40.40;31.80;;;;;;872195;161;26416;-75
2023/07/15 08:19:02;;;;;;;2.22;1.65;;;39.90;32.10;;;;;;872745;161;26260;-75
2023/07/15 08:21:29;;;;;;;1.77;1.67;;;39.50;32.70;;;;;;871526;161;26329;-76
2023/07/15 08:23:55;;;;;;;1.92;1.82;;;39.10;32.90;;;;;;872618;161;26366;-76
2023/07/15 08:26:22;;;;;;;2.05;1.60;;;38.70;33.20;;;;;;872897;161;26428;-76
2023/07/15 08:28:49;;;;;;;1.57;1.47;;;38.40;33.50;;;;;;872344;161;26680;-76
2023/07/15 08:31:15;;;;;;;2.55;1.70;;;38.20;33.70;;;;;;872007;162;26315;-75
2023/07/15 08:33:42;;;;;;;1.82;1.60;;;37.90;33.80;;;;;;872630;161;27495;-75
2023/07/15 08:36:08;;;;;;;1.80;1.70;;;37.70;34.20;;;;;;872537;161;26373;-75
2023/07/15 08:38:35;;;;;;;1.67;1.55;;;37.70;34.60;;;;;;872038;162;26429;-75
2023/07/15 08:41:01;;;;;;;1.70;1.60;;;37.80;35.10;;;;;;871782;162;26378;-75
2023/07/15 08:43:31;;;;;;;1.75;1.65;;;38.00;35.40;;;;;;872404;162;26338;-75
2023/07/15 08:45:58;;;;;;;2.45;1.70;;;38.30;35.30;;;;;;871119;162;26370;-75
2023/07/15 08:48:24;;;;;;;1.90;1.72;;;38.70;35.00;;;;;;872571;160;26331;-75
2023/07/15 08:50:51;;;;;;;1.85;1.67;;;39.10;35.00;;;;;;872363;161;26341;-75
2023/07/15 08:53:17;;;;;;;1.50;1.37;;;39.60;34.90;;;;;;872359;161;27001;-75
2023/07/15 08:55:44;;;;;;;2.37;1.47;;;40.10;34.70;;;;;;871265;161;26390;-75
2023/07/15 08:58:11;;;;;;;1.62;1.52;;;40.70;34.30;;;;;;872770;161;26342;-75
2023/07/15 09:00:37;;;;;;;1.90;1.80;;;41.30;34.00;;;;;;872184;161;26468;-75
2023/07/15 09:03:05;;;;;;;1.70;1.60;;;42.00;34.00;;;;;;872608;161;26342;-75
2023/07/15 09:05:30;;;;;;;1.52;1.42;;;42.70;33.40;;;;;;872172;161;26396;-75
2023/07/15 09:07:57;;;;;;;1.50;1.40;;;43.30;32.50;;;;;;872293;161;26353;-76
2023/07/15 09:10:24;;;;;;;1.87;1.57;;;43.80;31.60;;;;;;872303;163;26386;-75
2023/07/15 09:12:53;;;;;;;1.77;1.67;;;44.00;31.10;;;;;;872755;161;26439;-76
2023/07/15 09:15:20;;;;;;;2.35;1.40;;;44.00;30.60;;;;;;872614;161;26415;-75
2023/07/15 09:17:55;;;;;;;1.95;1.60;;;44.20;30.60;;;;;;872218;161;26358;-76
2023/07/15 09:20:22;;;;;;;1.75;1.40;;;44.30;30.60;;;;;;872967;163;26408;-76
2023/07/15 09:22:54;;;;;;;2.17;1.30;;;44.50;30.70;;;;;;872809;163;26332;-76
2023/07/15 09:25:22;;;;;;;2.30;1.40;;;44.80;30.20;;;;;;873185;163;26460;-76
2023/07/15 09:27:47;;;;;;;1.40;1.30;;;45.00;29.80;;;;;;872348;161;26440;-75
2023/07/15 09:30:14;;;;;;;4.92;1.35;;;45.00;29.40;;;;;;873382;163;26315;-75
2023/07/15 09:32:41;;;;;;;1.42;1.32;;;45.10;29.10;;;;;;872530;161;26449;-75
2023/07/15 09:35:07;;;;;;;1.27;1.17;;;45.10;29.30;;;;;;873153;161;26449;-75
2023/07/15 09:37:34;;;;;;;2.55;1.22;;;45.20;29.20;;;;;;872649;161;26362;-75
2023/07/15 09:40:01;;;;;;;1.67;1.57;;;45.20;29.00;;;;;;873526;161;26364;-75
2023/07/15 09:42:27;;;;;;;1.40;1.27;;;45.50;28.90;;;;;;871036;161;26315;-75
2023/07/15 09:44:54;;;;;;;1.27;1.17;;;45.60;28.70;;;;;;870856;161;26339;-75
2023/07/15 09:47:20;;;;;;;3.62;1.52;;;45.60;28.40;;;;;;872584;160;26337;-75
2023/07/15 09:49:47;;;;;;;1.55;1.30;;;45.60;28.10;;;;;;870701;162;26455;-75
2023/07/15 09:52:13;;;;;;;1.60;1.50;;;45.60;28.00;;;;;;871232;162;26350;-76
2023/07/15 09:54:40;;;;;;;1.50;1.40;;;45.40;27.80;;;;;;871759;162;26409;-76
2023/07/15 09:57:12;;;;;;;1.70;1.60;;;45.00;27.60;;;;;;872579;161;26337;-76
2023/07/15 09:59:48;;;;;;;2.62;1.40;;;44.70;27.60;;;;;;873279;163;26410;-75
2023/07/15 10:02:30;;;;;;;2.72;1.32;;;44.30;27.80;;;;;;873183;162;26322;-75
2023/07/15 10:04:56;;;;;;;1.20;1.10;;;43.90;27.30;;;;;;873931;162;26420;-75
2023/07/15 10:07:23;;;;;;;1.72;1.52;;;43.60;28.00;;;;;;872258;160;26315;-76
2023/07/15 10:09:49;;;;;;;1.50;1.40;;;43.20;28.20;;;;;;873484;160;26681;-76
2023/07/15 10:12:17;;;;;;;1.60;1.50;;;42.90;28.20;;;;;;872824;160;26374;-77
2023/07/15 10:14:42;;;;;;;5.08;1.40;;;42.70;28.40;;;;;;873649;161;26452;-77
2023/07/15 10:17:12;;;;;;;2.00;1.37;;;42.40;28.30;;;;;;872033;160;26395;-78
2023/07/15 10:19:41;;;;;;;2.62;1.98;;;42.00;28.70;;;;;;871904;160;26361;-78
2023/07/15 10:22:08;;;;;;;1.75;1.65;;;41.60;28.40;;;;;;873216;160;26393;-77
2023/07/15 10:24:34;;;;;;;1.85;1.70;;;41.20;28.50;;;;;;872893;160;26399;-78
2023/07/15 10:27:01;;;;;;;2.58;1.95;;;40.70;28.80;;;;;;873635;160;26332;-78
2023/07/15 10:29:28;;;;;;;2.72;1.70;;;40.30;29.00;;;;;;872647;160;26349;-75
2023/07/15 10:32:09;;;;;;;1.85;1.75;;;39.80;29.20;;;;;;865083;162;26351;-76
2023/07/15 10:34:38;;;;;;;2.37;2.08;;;39.40;29.50;;;;;;873300;160;26555;-76
2023/07/15 10:37:11;;;;;;;2.20;2.00;;;38.90;29.80;;;;;;872545;160;26425;-76
2023/07/15 10:39:37;;;;;;;6.10;2.37;;;38.50;30.00;;;;;;873177;163;27582;-76
2023/07/15 10:42:07;;;;;;;2.27;1.87;;;38.00;30.30;;;;;;873664;163;27479;-76
2023/07/15 10:44:33;;;;;;;4.15;1.80;;;37.60;30.60;;;;;;873924;163;27424;-77
2023/07/15 10:47:03;;;;;;;3.87;2.25;;;37.20;30.90;;;;;;873278;160;26318;-76
2023/07/15 10:49:32;;;;;;;4.30;1.98;;;36.90;31.30;;;;;;873660;162;26374;-78
2023/07/15 10:51:58;;;;;;;2.85;2.25;;;36.60;31.70;;;;;;873764;163;27528;-78
2023/07/15 10:54:28;;;;;;;2.10;1.90;;;36.20;32.00;;;;;;873618;163;27511;-77
2023/07/15 10:56:55;;;;;;;3.35;2.40;;;36.00;32.40;;;;;;873509;161;27580;-76
2023/07/15 10:59:21;;;;;;;2.10;1.77;;;35.80;32.90;;;;;;873222;160;27447;-76
2023/07/15 11:01:48;;;;;;;2.87;2.00;;;35.50;33.40;;;;;;872083;161;28377;-76
2023/07/15 11:04:15;;;;;;;2.45;2.22;;;35.40;33.60;;;;;;872412;161;27417;-76
2023/07/15 11:06:41;;;;;;;3.47;2.22;;;35.20;33.80;;;;;;872153;160;27440;-76
2023/07/15 11:09:14;;;;;;;2.35;2.15;;;35.00;33.90;;;;;;872120;161;27471;-76
2023/07/15 11:11:40;;;;;;;2.15;2.00;;;34.90;34.30;;;;;;871906;163;27541;-76
2023/07/15 11:14:07;;;;;;;2.30;1.77;;;34.70;34.40;;;;;;872000;163;27451;-76
2023/07/15 11:16:37;;;;;;;1.92;1.77;;;34.60;34.70;;;;;;871408;161;27960;-76
2023/07/15 11:19:03;;;;;;;3.22;1.92;;;34.50;35.00;;;;;;872465;161;27449;-76
2023/07/15 11:21:30;;;;;;;2.27;2.00;;;34.30;35.10;;;;;;872565;161;27466;-75
2023/07/15 11:23:56;;;;;;;3.50;2.00;;;34.20;35.50;;;;;;872555;163;27420;-75
2023/07/15 11:26:23;;;;;;;2.08;1.98;;;34.20;35.80;;;;;;873151;161;27452;-75
2023/07/15 11:28:50;;;;;;;4.10;1.80;;;34.20;35.90;;;;;;872710;163;27534;-75
2023/07/15 11:31:16;;;;;;;2.42;2.22;;;34.20;36.10;;;;;;872541;163;27644;-75
2023/07/15 11:33:43;;;;;;;2.17;1.98;;;34.10;36.20;;;;;;872945;161;27460;-75
2023/07/15 11:36:09;;;;;;;2.10;2.00;;;34.10;36.40;;;;;;873171;161;27421;-76
2023/07/15 11:38:36;;;;;;;2.50;1.90;;;34.10;36.60;;;;;;872017;161;27519;-76
2023/07/15 11:41:03;;;;;;;7.53;2.00;;;34.10;36.70;;;;;;871697;161;27405;-75
2023/07/15 11:43:29;;;;;;;2.22;1.77;;;34.10;36.80;;;;;;870023;160;27468;-76
2023/07/15 11:45:56;;;;;;;2.80;2.37;;;34.00;36.70;;;;;;872277;161;27452;-77
2023/07/15 11:48:22;;;;;;;2.60;2.40;;;34.00;36.90;;;;;;871504;161;27502;-76
2023/07/15 11:50:49;;;;;;;5.92;2.05;;;34.00;36.80;;;;;;870507;161;27538;-76
2023/07/15 11:53:30;;;;;;;2.42;2.10;;;34.00;36.80;;;;;;869880;161;27444;-76
2023/07/15 11:55:57;;;;;;;4.78;2.05;;;33.90;37.00;;;;;;869914;162;27491;-76
2023/07/15 11:58:42;;;;;;;3.50;1.92;;;33.90;38.10;;;;;;871473;161;27440;-76
2023/07/15 12:01:08;;;;;;;4.47;1.85;;;33.90;38.70;;;;;;873967;161;27416;-75
2023/07/15 12:03:35;;;;;;;4.62;2.37;;;33.80;39.10;;;;;;878203;160;27604;-76
2023/07/15 12:06:01;;;;;;;2.33;1.85;;;33.70;39.30;;;;;;878772;160;27443;-76
2023/07/15 12:08:28;;;;;;;3.60;2.35;;;33.60;39.60;;;;;;875855;160;27413;-75
2023/07/15 12:10:54;;;;;;;3.90;2.08;;;33.40;39.80;;;;;;871982;161;27550;-75
2023/07/15 12:13:21;;;;;;;3.45;2.15;;;33.30;40.40;;;;;;872172;161;27429;-76
2023/07/15 12:15:47;;;;;;;2.30;2.10;;;33.20;40.80;;;;;;872283;161;27525;-76
2023/07/15 12:18:14;;;;;;;3.92;2.27;;;33.00;41.10;;;;;;871974;161;27425;-76
2023/07/15 12:20:41;;;;;;;2.62;2.40;;;32.90;41.60;;;;;;872279;162;27515;-76
2023/07/15 12:23:07;;;;;;;2.75;2.15;;;32.80;41.80;;;;;;872429;163;27431;-76
2023/07/15 12:25:34;;;;;;;2.70;2.30;;;32.70;42.20;;;;;;873054;161;27436;-76
2023/07/15 12:28:00;;;;;;;2.52;1.92;;;32.60;42.50;;;;;;871613;161;27435;-76
2023/07/15 12:30:27;;;;;;;2.70;2.20;;;32.50;42.60;;;;;;872484;161;27484;-76
2023/07/15 12:32:54;;;;;;;3.92;1.92;;;32.40;43.00;;;;;;872418;161;27536;-76
2023/07/15 12:35:20;;;;;;;2.02;1.92;;;32.40;43.90;;;;;;871924;161;27568;-76
2023/07/15 12:37:47;;;;;;;2.75;2.08;;;32.30;44.90;;;;;;872240;161;27942;-75
2023/07/15 12:40:13;;;;;;;3.72;2.10;;;32.20;44.70;;;;;;872189;161;27539;-75
2023/07/15 12:42:40;;;;;;;3.85;2.20;;;32.20;44.80;;;;;;872740;162;27487;-76
2023/07/15 12:45:07;;;;;;;3.25;2.17;;;32.20;45.50;;;;;;872709;163;27527;-76
2023/07/15 12:47:33;;;;;;;1.98;1.87;;;32.20;45.40;;;;;;873425;160;27944;-76